sensor_id;sensor_type;location;lat;lon;timestamp;P1;durP1;ratioP1;P2;durP2;ratioP2
38603;SDS011;24924;50.054;8.790;2024-02-26T00:02:21;11.07;;;5.70;;
38603;SDS011;24924;50.054;8.790;2024-02-26T00:05:08;12.32;;;5.45;;
38603;SDS011;24924;50.054;8.790;2024-02-26T00:07:53;9.23;;;5.03;;
38603;SDS011;24924;50.054;8.790;2024-02-26T00:10:40;7.47;;;4.72;;
38603;SDS011;24924;50.054;8.790;2024-02-26T00:13:26;8.10;;;4.40;;
38603;SDS011;24924;50.054;8.790;2024-02-26T00:16:12;7.27;;;4.60;;
38603;SDS011;24924;50.054;8.790;2024-02-26T00:18:58;6.57;;;4.20;;
38603;SDS011;24924;50.054;8.790;2024-02-26T00:21:44;6.78;;;4.32;;
38603;SDS011;24924;50.054;8.790;2024-02-26T00:24:30;6.25;;;4.28;;
38603;SDS011;24924;50.054;8.790;2024-02-26T00:27:16;7.43;;;4.40;;
38603;SDS011;24924;50.054;8.790;2024-02-26T00:30:02;5.43;;;3.67;;
38603;SDS011;24924;50.054;8.790;2024-02-26T00:32:49;6.22;;;3.85;;
38603;SDS011;24924;50.054;8.790;2024-02-26T00:35:35;9.07;;;4.10;;
38603;SDS011;24924;50.054;8.790;2024-02-26T00:38:21;6.65;;;3.80;;
38603;SDS011;24924;50.054;8.790;2024-02-26T00:41:07;6.68;;;3.60;;
38603;SDS011;24924;50.054;8.790;2024-02-26T00:43:53;5.60;;;3.60;;
38603;SDS011;24924;50.054;8.790;2024-02-26T00:46:40;6.25;;;3.75;;
38603;SDS011;24924;50.054;8.790;2024-02-26T00:49:26;6.25;;;3.90;;
38603;SDS011;24924;50.054;8.790;2024-02-26T00:52:12;6.57;;;3.80;;
38603;SDS011;24924;50.054;8.790;2024-02-26T00:54:58;6.43;;;3.83;;
38603;SDS011;24924;50.054;8.790;2024-02-26T00:57:44;5.97;;;3.50;;
38603;SDS011;24924;50.054;8.790;2024-02-26T01:00:31;6.65;;;3.35;;
38603;SDS011;24924;50.054;8.790;2024-02-26T01:03:18;6.03;;;3.50;;
38603;SDS011;24924;50.054;8.790;2024-02-26T01:06:04;6.22;;;3.72;;
38603;SDS011;24924;50.054;8.790;2024-02-26T01:08:50;5.55;;;3.63;;
38603;SDS011;24924;50.054;8.790;2024-02-26T01:11:36;5.60;;;3.50;;
38603;SDS011;24924;50.054;8.790;2024-02-26T01:14:22;5.25;;;3.30;;
38603;SDS011;24924;50.054;8.790;2024-02-26T01:17:09;6.65;;;3.50;;
38603;SDS011;24924;50.054;8.790;2024-02-26T01:19:55;6.78;;;3.50;;
38603;SDS011;24924;50.054;8.790;2024-02-26T01:22:42;6.90;;;3.72;;
38603;SDS011;24924;50.054;8.790;2024-02-26T01:25:29;6.00;;;3.30;;
38603;SDS011;24924;50.054;8.790;2024-02-26T01:28:15;7.80;;;3.40;;
38603;SDS011;24924;50.054;8.790;2024-02-26T01:31:01;5.55;;;3.65;;
38603;SDS011;24924;50.054;8.790;2024-02-26T01:33:50;6.25;;;3.70;;
38603;SDS011;24924;50.054;8.790;2024-02-26T01:36:36;6.93;;;3.97;;
38603;SDS011;24924;50.054;8.790;2024-02-26T01:39:23;7.03;;;3.97;;
38603;SDS011;24924;50.054;8.790;2024-02-26T01:42:09;6.38;;;4.00;;
38603;SDS011;24924;50.054;8.790;2024-02-26T01:44:55;5.60;;;3.72;;
38603;SDS011;24924;50.054;8.790;2024-02-26T01:47:41;6.57;;;3.95;;
38603;SDS011;24924;50.054;8.790;2024-02-26T01:50:28;5.82;;;3.78;;
38603;SDS011;24924;50.054;8.790;2024-02-26T01:53:15;4.80;;;3.30;;
38603;SDS011;24924;50.054;8.790;2024-02-26T01:56:02;6.25;;;3.55;;
38603;SDS011;24924;50.054;8.790;2024-02-26T01:58:49;5.82;;;3.97;;
38603;SDS011;24924;50.054;8.790;2024-02-26T02:01:35;6.25;;;3.70;;
38603;SDS011;24924;50.054;8.790;2024-02-26T02:04:22;5.45;;;3.70;;
38603;SDS011;24924;50.054;8.790;2024-02-26T02:07:10;6.43;;;3.37;;
38603;SDS011;24924;50.054;8.790;2024-02-26T02:09:56;6.07;;;3.58;;
38603;SDS011;24924;50.054;8.790;2024-02-26T02:12:43;5.53;;;3.70;;
38603;SDS011;24924;50.054;8.790;2024-02-26T02:15:29;5.43;;;3.55;;
38603;SDS011;24924;50.054;8.790;2024-02-26T02:18:15;6.75;;;3.75;;
38603;SDS011;24924;50.054;8.790;2024-02-26T02:21:01;6.50;;;3.77;;
38603;SDS011;24924;50.054;8.790;2024-02-26T02:23:47;6.47;;;3.70;;
38603;SDS011;24924;50.054;8.790;2024-02-26T02:26:34;6.13;;;3.53;;
38603;SDS011;24924;50.054;8.790;2024-02-26T02:29:20;6.55;;;3.92;;
38603;SDS011;24924;50.054;8.790;2024-02-26T02:32:07;6.05;;;3.83;;
38603;SDS011;24924;50.054;8.790;2024-02-26T02:34:54;5.80;;;3.63;;
38603;SDS011;24924;50.054;8.790;2024-02-26T02:37:41;7.25;;;3.75;;
38603;SDS011;24924;50.054;8.790;2024-02-26T02:40:27;6.20;;;3.42;;
38603;SDS011;24924;50.054;8.790;2024-02-26T02:43:13;4.75;;;3.25;;
38603;SDS011;24924;50.054;8.790;2024-02-26T02:45:59;5.93;;;3.60;;
38603;SDS011;24924;50.054;8.790;2024-02-26T02:48:46;6.87;;;3.70;;
38603;SDS011;24924;50.054;8.790;2024-02-26T02:51:32;6.65;;;3.40;;
38603;SDS011;24924;50.054;8.790;2024-02-26T02:54:18;5.05;;;3.33;;
38603;SDS011;24924;50.054;8.790;2024-02-26T02:57:04;6.95;;;3.75;;
38603;SDS011;24924;50.054;8.790;2024-02-26T02:59:50;5.47;;;3.53;;
38603;SDS011;24924;50.054;8.790;2024-02-26T03:02:36;5.77;;;3.23;;
38603;SDS011;24924;50.054;8.790;2024-02-26T03:05:23;6.32;;;3.50;;
38603;SDS011;24924;50.054;8.790;2024-02-26T03:08:09;5.53;;;3.50;;
38603;SDS011;24924;50.054;8.790;2024-02-26T03:10:55;5.95;;;3.40;;
38603;SDS011;24924;50.054;8.790;2024-02-26T03:13:43;6.45;;;4.00;;
38603;SDS011;24924;50.054;8.790;2024-02-26T03:16:30;5.80;;;3.70;;
38603;SDS011;24924;50.054;8.790;2024-02-26T03:19:16;6.30;;;3.38;;
38603;SDS011;24924;50.054;8.790;2024-02-26T03:22:02;5.63;;;3.75;;
38603;SDS011;24924;50.054;8.790;2024-02-26T03:24:49;6.50;;;3.60;;
38603;SDS011;24924;50.054;8.790;2024-02-26T03:27:35;5.68;;;3.55;;
38603;SDS011;24924;50.054;8.790;2024-02-26T03:30:21;5.77;;;3.20;;
38603;SDS011;24924;50.054;8.790;2024-02-26T03:33:07;6.18;;;3.50;;
38603;SDS011;24924;50.054;8.790;2024-02-26T03:35:53;5.90;;;3.58;;
38603;SDS011;24924;50.054;8.790;2024-02-26T03:38:39;5.30;;;3.50;;
38603;SDS011;24924;50.054;8.790;2024-02-26T03:41:26;6.00;;;3.70;;
38603;SDS011;24924;50.054;8.790;2024-02-26T03:44:12;6.90;;;3.47;;
38603;SDS011;24924;50.054;8.790;2024-02-26T03:46:58;8.57;;;3.80;;
38603;SDS011;24924;50.054;8.790;2024-02-26T03:49:44;6.25;;;3.58;;
38603;SDS011;24924;50.054;8.790;2024-02-26T03:52:30;5.18;;;3.53;;
38603;SDS011;24924;50.054;8.790;2024-02-26T03:55:17;5.82;;;3.55;;
38603;SDS011;24924;50.054;8.790;2024-02-26T03:58:06;6.20;;;3.60;;
38603;SDS011;24924;50.054;8.790;2024-02-26T04:00:52;5.57;;;3.20;;
38603;SDS011;24924;50.054;8.790;2024-02-26T04:03:38;6.20;;;3.53;;
38603;SDS011;24924;50.054;8.790;2024-02-26T04:06:25;5.63;;;3.53;;
38603;SDS011;24924;50.054;8.790;2024-02-26T04:09:11;8.48;;;3.58;;
38603;SDS011;24924;50.054;8.790;2024-02-26T04:11:59;6.60;;;3.97;;
38603;SDS011;24924;50.054;8.790;2024-02-26T04:14:45;5.43;;;3.47;;
38603;SDS011;24924;50.054;8.790;2024-02-26T04:17:31;5.80;;;3.67;;
38603;SDS011;24924;50.054;8.790;2024-02-26T04:20:18;6.38;;;3.75;;
38603;SDS011;24924;50.054;8.790;2024-02-26T04:23:04;6.35;;;3.72;;
38603;SDS011;24924;50.054;8.790;2024-02-26T04:25:50;5.60;;;3.50;;
38603;SDS011;24924;50.054;8.790;2024-02-26T04:28:39;6.03;;;3.47;;
38603;SDS011;24924;50.054;8.790;2024-02-26T04:31:24;6.60;;;3.83;;
38603;SDS011;24924;50.054;8.790;2024-02-26T04:34:11;5.63;;;3.72;;
38603;SDS011;24924;50.054;8.790;2024-02-26T04:36:57;6.13;;;3.70;;
38603;SDS011;24924;50.054;8.790;2024-02-26T04:39:44;5.90;;;4.03;;
38603;SDS011;24924;50.054;8.790;2024-02-26T04:42:31;7.63;;;3.95;;
38603;SDS011;24924;50.054;8.790;2024-02-26T04:45:17;5.82;;;3.72;;
38603;SDS011;24924;50.054;8.790;2024-02-26T04:48:03;5.80;;;3.60;;
38603;SDS011;24924;50.054;8.790;2024-02-26T04:50:50;6.03;;;3.78;;
38603;SDS011;24924;50.054;8.790;2024-02-26T04:53:35;6.03;;;3.70;;
38603;SDS011;24924;50.054;8.790;2024-02-26T04:56:22;5.88;;;3.83;;
38603;SDS011;24924;50.054;8.790;2024-02-26T04:59:08;6.50;;;4.00;;
38603;SDS011;24924;50.054;8.790;2024-02-26T05:01:54;6.25;;;4.30;;
38603;SDS011;24924;50.054;8.790;2024-02-26T05:04:40;6.80;;;4.15;;
38603;SDS011;24924;50.054;8.790;2024-02-26T05:07:26;6.77;;;4.00;;
38603;SDS011;24924;50.054;8.790;2024-02-26T05:10:12;7.40;;;4.43;;
38603;SDS011;24924;50.054;8.790;2024-02-26T05:12:58;6.40;;;4.30;;
38603;SDS011;24924;50.054;8.790;2024-02-26T05:15:45;5.93;;;4.20;;
38603;SDS011;24924;50.054;8.790;2024-02-26T05:18:34;6.07;;;4.18;;
38603;SDS011;24924;50.054;8.790;2024-02-26T05:21:20;6.47;;;4.07;;
38603;SDS011;24924;50.054;8.790;2024-02-26T05:24:07;7.60;;;4.32;;
38603;SDS011;24924;50.054;8.790;2024-02-26T05:26:53;7.35;;;4.55;;
38603;SDS011;24924;50.054;8.790;2024-02-26T05:29:40;8.70;;;5.70;;
38603;SDS011;24924;50.054;8.790;2024-02-26T05:32:26;8.27;;;4.95;;
38603;SDS011;24924;50.054;8.790;2024-02-26T05:35:12;7.10;;;4.23;;
38603;SDS011;24924;50.054;8.790;2024-02-26T05:37:59;9.13;;;5.00;;
38603;SDS011;24924;50.054;8.790;2024-02-26T05:40:45;9.15;;;4.82;;
38603;SDS011;24924;50.054;8.790;2024-02-26T05:43:31;8.55;;;5.20;;
38603;SDS011;24924;50.054;8.790;2024-02-26T05:46:17;7.38;;;4.78;;
38603;SDS011;24924;50.054;8.790;2024-02-26T05:49:04;8.37;;;4.90;;
38603;SDS011;24924;50.054;8.790;2024-02-26T05:51:50;8.57;;;5.15;;
38603;SDS011;24924;50.054;8.790;2024-02-26T05:54:36;8.75;;;5.20;;
38603;SDS011;24924;50.054;8.790;2024-02-26T05:57:22;8.05;;;4.80;;
38603;SDS011;24924;50.054;8.790;2024-02-26T06:00:09;7.05;;;4.80;;
38603;SDS011;24924;50.054;8.790;2024-02-26T06:02:59;7.93;;;4.73;;
38603;SDS011;24924;50.054;8.790;2024-02-26T06:05:45;9.73;;;4.90;;
38603;SDS011;24924;50.054;8.790;2024-02-26T06:08:32;8.00;;;4.95;;
38603;SDS011;24924;50.054;8.790;2024-02-26T06:11:17;7.65;;;4.35;;
38603;SDS011;24924;50.054;8.790;2024-02-26T06:14:03;7.05;;;4.65;;
38603;SDS011;24924;50.054;8.790;2024-02-26T06:16:50;7.93;;;4.87;;
38603;SDS011;24924;50.054;8.790;2024-02-26T06:19:36;7.00;;;4.57;;
38603;SDS011;24924;50.054;8.790;2024-02-26T06:22:22;7.00;;;4.75;;
38603;SDS011;24924;50.054;8.790;2024-02-26T06:25:08;7.85;;;4.65;;
38603;SDS011;24924;50.054;8.790;2024-02-26T06:27:54;7.93;;;4.40;;
38603;SDS011;24924;50.054;8.790;2024-02-26T06:30:41;7.90;;;4.50;;
38603;SDS011;24924;50.054;8.790;2024-02-26T06:33:27;8.13;;;4.57;;
38603;SDS011;24924;50.054;8.790;2024-02-26T06:36:13;8.80;;;4.40;;
38603;SDS011;24924;50.054;8.790;2024-02-26T06:38:59;7.93;;;4.63;;
38603;SDS011;24924;50.054;8.790;2024-02-26T06:41:45;7.82;;;4.68;;
38603;SDS011;24924;50.054;8.790;2024-02-26T06:44:32;6.87;;;4.40;;
38603;SDS011;24924;50.054;8.790;2024-02-26T06:47:19;8.38;;;4.68;;
38603;SDS011;24924;50.054;8.790;2024-02-26T06:50:05;6.78;;;4.60;;
38603;SDS011;24924;50.054;8.790;2024-02-26T06:52:51;7.50;;;4.60;;
38603;SDS011;24924;50.054;8.790;2024-02-26T06:55:37;8.88;;;5.03;;
38603;SDS011;24924;50.054;8.790;2024-02-26T06:58:25;8.63;;;5.17;;
38603;SDS011;24924;50.054;8.790;2024-02-26T07:01:12;7.95;;;5.07;;
38603;SDS011;24924;50.054;8.790;2024-02-26T07:03:58;9.45;;;4.72;;
38603;SDS011;24924;50.054;8.790;2024-02-26T07:06:44;7.80;;;4.72;;
38603;SDS011;24924;50.054;8.790;2024-02-26T07:09:32;7.43;;;4.85;;
38603;SDS011;24924;50.054;8.790;2024-02-26T07:12:18;8.57;;;4.87;;
38603;SDS011;24924;50.054;8.790;2024-02-26T07:15:06;7.85;;;5.20;;
38603;SDS011;24924;50.054;8.790;2024-02-26T07:17:53;8.63;;;4.95;;
38603;SDS011;24924;50.054;8.790;2024-02-26T07:20:39;10.27;;;5.25;;
38603;SDS011;24924;50.054;8.790;2024-02-26T07:23:25;9.40;;;4.97;;
38603;SDS011;24924;50.054;8.790;2024-02-26T07:26:11;7.07;;;4.50;;
38603;SDS011;24924;50.054;8.790;2024-02-26T07:28:57;7.53;;;4.78;;
38603;SDS011;24924;50.054;8.790;2024-02-26T07:31:43;9.25;;;4.95;;
38603;SDS011;24924;50.054;8.790;2024-02-26T07:34:29;7.78;;;4.97;;
38603;SDS011;24924;50.054;8.790;2024-02-26T07:37:15;10.10;;;5.68;;
38603;SDS011;24924;50.054;8.790;2024-02-26T07:40:02;7.63;;;4.70;;
38603;SDS011;24924;50.054;8.790;2024-02-26T07:42:48;8.77;;;5.40;;
38603;SDS011;24924;50.054;8.790;2024-02-26T07:45:34;9.63;;;5.85;;
38603;SDS011;24924;50.054;8.790;2024-02-26T07:48:22;9.15;;;5.55;;
38603;SDS011;24924;50.054;8.790;2024-02-26T07:51:08;8.27;;;5.10;;
38603;SDS011;24924;50.054;8.790;2024-02-26T07:53:54;9.33;;;5.57;;
38603;SDS011;24924;50.054;8.790;2024-02-26T07:56:40;8.90;;;4.80;;
38603;SDS011;24924;50.054;8.790;2024-02-26T07:59:26;8.20;;;5.57;;
38603;SDS011;24924;50.054;8.790;2024-02-26T08:02:12;11.23;;;6.35;;
38603;SDS011;24924;50.054;8.790;2024-02-26T08:04:58;9.65;;;5.53;;
38603;SDS011;24924;50.054;8.790;2024-02-26T08:07:45;9.70;;;5.33;;
38603;SDS011;24924;50.054;8.790;2024-02-26T08:10:30;12.05;;;5.97;;
38603;SDS011;24924;50.054;8.790;2024-02-26T08:13:16;9.75;;;5.50;;
38603;SDS011;24924;50.054;8.790;2024-02-26T08:16:02;10.35;;;6.05;;
38603;SDS011;24924;50.054;8.790;2024-02-26T08:18:48;10.02;;;6.30;;
38603;SDS011;24924;50.054;8.790;2024-02-26T08:21:34;13.07;;;6.47;;
38603;SDS011;24924;50.054;8.790;2024-02-26T08:24:22;11.30;;;6.22;;
38603;SDS011;24924;50.054;8.790;2024-02-26T08:27:09;10.35;;;6.40;;
38603;SDS011;24924;50.054;8.790;2024-02-26T08:29:55;11.13;;;6.18;;
38603;SDS011;24924;50.054;8.790;2024-02-26T08:32:45;10.45;;;6.20;;
38603;SDS011;24924;50.054;8.790;2024-02-26T08:35:31;10.07;;;6.27;;
38603;SDS011;24924;50.054;8.790;2024-02-26T08:38:17;12.02;;;6.47;;
38603;SDS011;24924;50.054;8.790;2024-02-26T08:41:03;9.73;;;5.90;;
38603;SDS011;24924;50.054;8.790;2024-02-26T08:43:50;10.02;;;6.32;;
38603;SDS011;24924;50.054;8.790;2024-02-26T08:46:36;10.23;;;6.30;;
38603;SDS011;24924;50.054;8.790;2024-02-26T08:49:22;10.53;;;6.03;;
38603;SDS011;24924;50.054;8.790;2024-02-26T08:52:09;9.80;;;5.88;;
38603;SDS011;24924;50.054;8.790;2024-02-26T08:54:55;10.73;;;6.22;;
38603;SDS011;24924;50.054;8.790;2024-02-26T08:57:42;10.13;;;6.10;;
38603;SDS011;24924;50.054;8.790;2024-02-26T09:00:28;10.88;;;6.32;;
38603;SDS011;24924;50.054;8.790;2024-02-26T09:03:14;10.20;;;6.00;;
38603;SDS011;24924;50.054;8.790;2024-02-26T09:06:01;10.82;;;6.63;;
38603;SDS011;24924;50.054;8.790;2024-02-26T09:08:47;10.07;;;6.20;;
38603;SDS011;24924;50.054;8.790;2024-02-26T09:11:33;11.63;;;6.00;;
38603;SDS011;24924;50.054;8.790;2024-02-26T09:14:20;11.10;;;6.35;;
38603;SDS011;24924;50.054;8.790;2024-02-26T09:17:06;12.57;;;6.40;;
38603;SDS011;24924;50.054;8.790;2024-02-26T09:19:53;9.48;;;6.18;;
38603;SDS011;24924;50.054;8.790;2024-02-26T09:22:39;12.07;;;6.30;;
38603;SDS011;24924;50.054;8.790;2024-02-26T09:25:25;12.27;;;6.45;;
38603;SDS011;24924;50.054;8.790;2024-02-26T09:28:11;11.63;;;6.50;;
38603;SDS011;24924;50.054;8.790;2024-02-26T09:30:57;12.03;;;6.43;;
38603;SDS011;24924;50.054;8.790;2024-02-26T09:33:43;11.20;;;6.20;;
38603;SDS011;24924;50.054;8.790;2024-02-26T09:36:29;11.05;;;6.90;;
38603;SDS011;24924;50.054;8.790;2024-02-26T09:39:16;13.00;;;6.75;;
38603;SDS011;24924;50.054;8.790;2024-02-26T09:42:07;12.65;;;7.55;;
38603;SDS011;24924;50.054;8.790;2024-02-26T09:44:55;11.83;;;7.53;;
38603;SDS011;24924;50.054;8.790;2024-02-26T09:47:47;12.15;;;7.15;;
38603;SDS011;24924;50.054;8.790;2024-02-26T09:50:35;12.70;;;6.93;;
38603;SDS011;24924;50.054;8.790;2024-02-26T09:53:22;11.95;;;6.55;;
38603;SDS011;24924;50.054;8.790;2024-02-26T09:56:08;11.70;;;7.22;;
38603;SDS011;24924;50.054;8.790;2024-02-26T09:58:56;12.50;;;7.50;;
38603;SDS011;24924;50.054;8.790;2024-02-26T10:01:44;12.73;;;7.32;;
38603;SDS011;24924;50.054;8.790;2024-02-26T10:04:31;13.05;;;7.47;;
38603;SDS011;24924;50.054;8.790;2024-02-26T10:07:18;12.80;;;7.70;;
38603;SDS011;24924;50.054;8.790;2024-02-26T10:10:04;12.10;;;7.18;;
38603;SDS011;24924;50.054;8.790;2024-02-26T10:12:50;12.30;;;7.17;;
38603;SDS011;24924;50.054;8.790;2024-02-26T10:15:36;12.43;;;6.80;;
38603;SDS011;24924;50.054;8.790;2024-02-26T10:18:22;14.05;;;8.00;;
38603;SDS011;24924;50.054;8.790;2024-02-26T10:21:09;14.98;;;7.55;;
38603;SDS011;24924;50.054;8.790;2024-02-26T10:23:56;12.48;;;7.93;;
38603;SDS011;24924;50.054;8.790;2024-02-26T10:26:45;12.17;;;7.77;;
38603;SDS011;24924;50.054;8.790;2024-02-26T10:29:31;13.02;;;7.63;;
38603;SDS011;24924;50.054;8.790;2024-02-26T10:32:18;10.45;;;6.55;;
38603;SDS011;24924;50.054;8.790;2024-02-26T10:35:07;12.30;;;6.88;;
38603;SDS011;24924;50.054;8.790;2024-02-26T10:37:54;12.65;;;6.65;;
38603;SDS011;24924;50.054;8.790;2024-02-26T10:40:40;12.33;;;6.50;;
38603;SDS011;24924;50.054;8.790;2024-02-26T10:43:26;10.65;;;6.28;;
38603;SDS011;24924;50.054;8.790;2024-02-26T10:46:12;9.05;;;6.25;;
38603;SDS011;24924;50.054;8.790;2024-02-26T10:48:59;9.52;;;6.00;;
38603;SDS011;24924;50.054;8.790;2024-02-26T10:51:49;10.38;;;6.82;;
38603;SDS011;24924;50.054;8.790;2024-02-26T10:54:44;11.17;;;6.37;;
38603;SDS011;24924;50.054;8.790;2024-02-26T10:57:34;11.50;;;6.88;;
38603;SDS011;24924;50.054;8.790;2024-02-26T11:00:23;10.25;;;6.10;;
38603;SDS011;24924;50.054;8.790;2024-02-26T11:03:10;9.38;;;5.85;;
38603;SDS011;24924;50.054;8.790;2024-02-26T11:05:57;8.25;;;5.68;;
38603;SDS011;24924;50.054;8.790;2024-02-26T11:08:47;9.77;;;6.30;;
38603;SDS011;24924;50.054;8.790;2024-02-26T11:11:34;10.43;;;5.28;;
38603;SDS011;24924;50.054;8.790;2024-02-26T11:14:21;11.07;;;6.18;;
38603;SDS011;24924;50.054;8.790;2024-02-26T11:17:11;9.30;;;6.13;;
38603;SDS011;24924;50.054;8.790;2024-02-26T11:19:59;10.77;;;6.43;;
38603;SDS011;24924;50.054;8.790;2024-02-26T11:22:45;9.10;;;5.40;;
38603;SDS011;24924;50.054;8.790;2024-02-26T11:25:31;12.38;;;6.93;;
38603;SDS011;24924;50.054;8.790;2024-02-26T11:28:18;11.98;;;5.95;;
38603;SDS011;24924;50.054;8.790;2024-02-26T11:31:06;10.30;;;5.70;;
38603;SDS011;24924;50.054;8.790;2024-02-26T11:33:54;8.02;;;5.68;;
38603;SDS011;24924;50.054;8.790;2024-02-26T11:36:41;9.47;;;6.10;;
38603;SDS011;24924;50.054;8.790;2024-02-26T11:39:28;10.77;;;5.82;;
38603;SDS011;24924;50.054;8.790;2024-02-26T11:42:16;9.00;;;5.50;;
38603;SDS011;24924;50.054;8.790;2024-02-26T11:45:02;10.40;;;5.70;;
38603;SDS011;24924;50.054;8.790;2024-02-26T11:47:55;10.63;;;5.63;;
38603;SDS011;24924;50.054;8.790;2024-02-26T11:50:42;7.90;;;5.33;;
38603;SDS011;24924;50.054;8.790;2024-02-26T11:53:32;9.48;;;5.65;;
38603;SDS011;24924;50.054;8.790;2024-02-26T11:56:21;8.82;;;5.65;;
38603;SDS011;24924;50.054;8.790;2024-02-26T11:59:12;8.73;;;5.63;;
38603;SDS011;24924;50.054;8.790;2024-02-26T12:02:40;8.23;;;5.50;;
38603;SDS011;24924;50.054;8.790;2024-02-26T12:05:30;10.23;;;6.10;;
38603;SDS011;24924;50.054;8.790;2024-02-26T12:08:19;7.95;;;5.38;;
38603;SDS011;24924;50.054;8.790;2024-02-26T12:11:14;9.10;;;5.50;;
38603;SDS011;24924;50.054;8.790;2024-02-26T12:14:01;8.32;;;5.50;;
38603;SDS011;24924;50.054;8.790;2024-02-26T12:16:47;9.57;;;5.75;;
38603;SDS011;24924;50.054;8.790;2024-02-26T12:19:34;8.20;;;5.30;;
38603;SDS011;24924;50.054;8.790;2024-02-26T12:22:22;10.73;;;5.80;;
38603;SDS011;24924;50.054;8.790;2024-02-26T12:25:10;9.20;;;4.97;;
38603;SDS011;24924;50.054;8.790;2024-02-26T12:27:56;8.88;;;4.65;;
38603;SDS011;24924;50.054;8.790;2024-02-26T12:30:43;8.55;;;5.22;;
38603;SDS011;24924;50.054;8.790;2024-02-26T12:33:29;7.93;;;4.97;;
38603;SDS011;24924;50.054;8.790;2024-02-26T12:36:16;9.40;;;5.55;;
38603;SDS011;24924;50.054;8.790;2024-02-26T12:39:02;10.32;;;5.70;;
38603;SDS011;24924;50.054;8.790;2024-02-26T12:41:51;8.75;;;5.55;;
38603;SDS011;24924;50.054;8.790;2024-02-26T12:44:37;9.30;;;6.10;;
38603;SDS011;24924;50.054;8.790;2024-02-26T12:47:24;8.33;;;5.77;;
38603;SDS011;24924;50.054;8.790;2024-02-26T12:50:10;7.75;;;5.07;;
38603;SDS011;24924;50.054;8.790;2024-02-26T12:52:56;9.52;;;6.43;;
38603;SDS011;24924;50.054;8.790;2024-02-26T12:55:43;9.32;;;5.60;;
38603;SDS011;24924;50.054;8.790;2024-02-26T12:58:29;8.52;;;5.15;;
38603;SDS011;24924;50.054;8.790;2024-02-26T13:01:17;9.37;;;5.30;;
38603;SDS011;24924;50.054;8.790;2024-02-26T13:04:08;7.63;;;4.72;;
38603;SDS011;24924;50.054;8.790;2024-02-26T13:06:56;7.18;;;5.00;;
38603;SDS011;24924;50.054;8.790;2024-02-26T13:09:48;9.75;;;6.22;;
38603;SDS011;24924;50.054;8.790;2024-02-26T13:12:34;9.27;;;5.10;;
38603;SDS011;24924;50.054;8.790;2024-02-26T13:15:21;7.63;;;4.80;;
38603;SDS011;24924;50.054;8.790;2024-02-26T13:18:10;8.85;;;5.30;;
38603;SDS011;24924;50.054;8.790;2024-02-26T13:21:10;8.90;;;5.55;;
38603;SDS011;24924;50.054;8.790;2024-02-26T13:23:58;9.63;;;5.10;;
38603;SDS011;24924;50.054;8.790;2024-02-26T13:26:44;7.85;;;4.80;;
38603;SDS011;24924;50.054;8.790;2024-02-26T13:29:30;8.93;;;5.27;;
38603;SDS011;24924;50.054;8.790;2024-02-26T13:32:16;7.60;;;4.80;;
38603;SDS011;24924;50.054;8.790;2024-02-26T13:35:09;8.95;;;4.90;;
38603;SDS011;24924;50.054;8.790;2024-02-26T13:37:58;9.48;;;4.85;;
38603;SDS011;24924;50.054;8.790;2024-02-26T13:40:45;9.25;;;4.78;;
38603;SDS011;24924;50.054;8.790;2024-02-26T13:43:30;9.13;;;4.83;;
38603;SDS011;24924;50.054;8.790;2024-02-26T13:46:16;11.00;;;4.60;;
38603;SDS011;24924;50.054;8.790;2024-02-26T13:49:03;9.20;;;6.25;;
38603;SDS011;24924;50.054;8.790;2024-02-26T13:51:49;9.40;;;5.03;;
38603;SDS011;24924;50.054;8.790;2024-02-26T13:54:35;7.97;;;4.70;;
38603;SDS011;24924;50.054;8.790;2024-02-26T13:57:24;9.10;;;5.00;;
38603;SDS011;24924;50.054;8.790;2024-02-26T14:00:10;8.20;;;4.57;;
38603;SDS011;24924;50.054;8.790;2024-02-26T14:03:00;7.18;;;4.35;;
38603;SDS011;24924;50.054;8.790;2024-02-26T14:05:46;8.00;;;4.78;;
38603;SDS011;24924;50.054;8.790;2024-02-26T14:08:33;8.50;;;4.60;;
38603;SDS011;24924;50.054;8.790;2024-02-26T14:11:19;8.23;;;5.10;;
38603;SDS011;24924;50.054;8.790;2024-02-26T14:14:05;7.55;;;4.60;;
38603;SDS011;24924;50.054;8.790;2024-02-26T14:16:51;8.52;;;4.53;;
38603;SDS011;24924;50.054;8.790;2024-02-26T14:19:37;6.78;;;4.07;;
38603;SDS011;24924;50.054;8.790;2024-02-26T14:22:25;9.18;;;4.43;;
38603;SDS011;24924;50.054;8.790;2024-02-26T14:25:15;7.77;;;4.47;;
38603;SDS011;24924;50.054;8.790;2024-02-26T14:28:02;6.70;;;4.22;;
38603;SDS011;24924;50.054;8.790;2024-02-26T14:30:48;15.10;;;8.65;;
38603;SDS011;24924;50.054;8.790;2024-02-26T14:33:35;8.30;;;5.40;;
38603;SDS011;24924;50.054;8.790;2024-02-26T14:36:23;13.32;;;7.68;;
38603;SDS011;24924;50.054;8.790;2024-02-26T14:39:10;12.80;;;7.30;;
38603;SDS011;24924;50.054;8.790;2024-02-26T14:41:58;9.52;;;5.30;;
38603;SDS011;24924;50.054;8.790;2024-02-26T14:44:44;8.70;;;5.68;;
38603;SDS011;24924;50.054;8.790;2024-02-26T14:47:33;7.55;;;4.07;;
38603;SDS011;24924;50.054;8.790;2024-02-26T14:50:19;7.80;;;4.65;;
38603;SDS011;24924;50.054;8.790;2024-02-26T14:53:05;11.87;;;6.83;;
38603;SDS011;24924;50.054;8.790;2024-02-26T14:55:51;10.20;;;6.50;;
38603;SDS011;24924;50.054;8.790;2024-02-26T14:58:37;8.35;;;5.35;;
38603;SDS011;24924;50.054;8.790;2024-02-26T15:01:24;13.60;;;6.60;;
38603;SDS011;24924;50.054;8.790;2024-02-26T15:04:10;30.35;;;16.20;;
38603;SDS011;24924;50.054;8.790;2024-02-26T15:06:56;8.63;;;6.40;;
38603;SDS011;24924;50.054;8.790;2024-02-26T15:09:42;6.60;;;4.20;;
38603;SDS011;24924;50.054;8.790;2024-02-26T15:12:28;7.63;;;4.20;;
38603;SDS011;24924;50.054;8.790;2024-02-26T15:15:18;7.97;;;4.50;;
38603;SDS011;24924;50.054;8.790;2024-02-26T15:18:04;7.88;;;4.22;;
38603;SDS011;24924;50.054;8.790;2024-02-26T15:20:50;6.50;;;4.00;;
38603;SDS011;24924;50.054;8.790;2024-02-26T15:23:37;6.63;;;4.50;;
38603;SDS011;24924;50.054;8.790;2024-02-26T15:26:24;7.00;;;4.07;;
38603;SDS011;24924;50.054;8.790;2024-02-26T15:29:12;7.05;;;3.90;;
38603;SDS011;24924;50.054;8.790;2024-02-26T15:31:58;7.05;;;4.13;;
38603;SDS011;24924;50.054;8.790;2024-02-26T15:34:44;7.90;;;3.97;;
38603;SDS011;24924;50.054;8.790;2024-02-26T15:37:31;7.15;;;3.72;;
38603;SDS011;24924;50.054;8.790;2024-02-26T15:40:17;7.82;;;4.10;;
38603;SDS011;24924;50.054;8.790;2024-02-26T15:43:04;7.32;;;4.13;;
38603;SDS011;24924;50.054;8.790;2024-02-26T15:45:50;7.30;;;4.20;;
38603;SDS011;24924;50.054;8.790;2024-02-26T15:48:36;6.43;;;4.30;;
38603;SDS011;24924;50.054;8.790;2024-02-26T15:51:23;8.50;;;4.10;;
38603;SDS011;24924;50.054;8.790;2024-02-26T15:54:12;7.18;;;3.90;;
38603;SDS011;24924;50.054;8.790;2024-02-26T15:56:58;6.93;;;3.90;;
38603;SDS011;24924;50.054;8.790;2024-02-26T15:59:44;6.82;;;3.83;;
38603;SDS011;24924;50.054;8.790;2024-02-26T16:02:31;7.27;;;4.27;;
38603;SDS011;24924;50.054;8.790;2024-02-26T16:05:17;8.10;;;3.78;;
38603;SDS011;24924;50.054;8.790;2024-02-26T16:08:10;7.32;;;3.60;;
38603;SDS011;24924;50.054;8.790;2024-02-26T16:11:05;7.03;;;3.90;;
38603;SDS011;24924;50.054;8.790;2024-02-26T16:13:54;5.85;;;3.47;;
38603;SDS011;24924;50.054;8.790;2024-02-26T16:17:06;6.60;;;3.43;;
38603;SDS011;24924;50.054;8.790;2024-02-26T16:20:21;6.18;;;3.50;;
38603;SDS011;24924;50.054;8.790;2024-02-26T16:23:10;6.03;;;3.65;;
38603;SDS011;24924;50.054;8.790;2024-02-26T16:25:56;6.43;;;3.50;;
38603;SDS011;24924;50.054;8.790;2024-02-26T16:28:42;6.78;;;3.83;;
38603;SDS011;24924;50.054;8.790;2024-02-26T16:31:28;7.60;;;3.80;;
38603;SDS011;24924;50.054;8.790;2024-02-26T16:34:14;6.35;;;3.70;;
38603;SDS011;24924;50.054;8.790;2024-02-26T16:37:03;7.32;;;3.67;;
38603;SDS011;24924;50.054;8.790;2024-02-26T16:39:58;7.15;;;3.60;;
38603;SDS011;24924;50.054;8.790;2024-02-26T16:42:46;5.43;;;3.58;;
38603;SDS011;24924;50.054;8.790;2024-02-26T16:45:33;5.80;;;3.47;;